createdAt,value
2022-08-16T00:01:24.359Z,100206.00
2022-08-16T00:03:53.520Z,100213.00
2022-08-16T00:06:21.666Z,100208.00
2022-08-16T00:08:49.870Z,100214.00
2022-08-16T00:11:17.902Z,100209.00
2022-08-16T00:13:53.337Z,100191.00
2022-08-16T00:17:06.679Z,100190.00
2022-08-16T00:19:16.844Z,100191.00
2022-08-16T00:21:44.768Z,100195.00
2022-08-16T00:24:13.298Z,100196.00
2022-08-16T00:26:58.461Z,100208.00
2022-08-16T00:29:25.712Z,100206.00
2022-08-16T00:32:01.058Z,100209.00
2022-08-16T00:34:44.220Z,100206.00
2022-08-16T00:37:24.430Z,100212.00
2022-08-16T00:39:57.490Z,100218.00
2022-08-16T00:42:32.035Z,100227.00
2022-08-16T00:45:24.975Z,100228.00
2022-08-16T00:47:53.508Z,100227.00
2022-08-16T00:50:36.320Z,100226.00
2022-08-16T00:53:08.550Z,100230.00
2022-08-16T00:55:40.147Z,100225.00
2022-08-16T00:58:13.241Z,100218.00
2022-08-16T01:00:53.940Z,100228.00
2022-08-16T01:03:30.018Z,100227.00
2022-08-16T01:05:57.866Z,100222.00
2022-08-16T01:08:35.481Z,100233.00
2022-08-16T01:11:05.410Z,100233.00
2022-08-16T01:13:37.333Z,100237.00
2022-08-16T01:16:12.817Z,100234.00
2022-08-16T01:19:19.832Z,100235.00
2022-08-16T01:22:47.913Z,100238.00
2022-08-16T01:25:34.076Z,100245.00
2022-08-16T01:28:07.165Z,100250.00
2022-08-16T01:30:49.580Z,100255.00
2022-08-16T01:33:20.095Z,100252.00
2022-08-16T01:36:12.009Z,100257.00
2022-08-16T01:38:57.271Z,100260.00
2022-08-16T01:41:30.542Z,100260.00
2022-08-16T01:44:01.054Z,100268.00
2022-08-16T01:46:39.142Z,100264.00
2022-08-16T01:49:42.871Z,100268.00
2022-08-16T01:52:28.256Z,100269.00
2022-08-16T01:54:57.992Z,100264.00
2022-08-16T01:57:27.763Z,100260.00
2022-08-16T01:59:59.464Z,100256.00
2022-08-16T02:02:28.587Z,100256.00
2022-08-16T02:04:58.089Z,100245.00
2022-08-16T02:07:26.032Z,100245.00
2022-08-16T02:09:57.148Z,100251.00
2022-08-16T02:12:50.044Z,100251.00
2022-08-16T02:15:25.426Z,100254.00
2022-08-16T02:17:57.342Z,100249.00
2022-08-16T02:20:27.964Z,100265.00
2022-08-16T02:22:58.085Z,100269.00
2022-08-16T02:25:50.734Z,100273.00
2022-08-16T02:28:17.181Z,100267.00
2022-08-16T02:30:50.612Z,100269.00
2022-08-16T02:33:17.997Z,100268.00
2022-08-16T02:35:53.724Z,100252.00
2022-08-16T02:38:22.535Z,100268.00
2022-08-16T02:40:49.477Z,100276.00
2022-08-16T02:43:16.455Z,100276.00
2022-08-16T02:45:43.826Z,100273.00
2022-08-16T02:48:29.179Z,100267.00
2022-08-16T02:51:10.845Z,100272.00
2022-08-16T02:53:44.924Z,100263.00
2022-08-16T02:56:16.099Z,100263.00
2022-08-16T02:58:45.436Z,100270.00
2022-08-16T03:01:25.354Z,100268.00
2022-08-16T03:04:41.262Z,100277.00
2022-08-16T03:06:51.433Z,100278.00
2022-08-16T03:09:24.674Z,100283.00
2022-08-16T03:11:51.558Z,100278.00
2022-08-16T03:14:21.420Z,100282.00
2022-08-16T03:16:59.636Z,100282.00
2022-08-16T03:19:48.174Z,100280.00
2022-08-16T03:22:28.758Z,100280.00
2022-08-16T03:25:00.777Z,100291.00
2022-08-16T03:27:31.356Z,100285.00
2022-08-16T03:30:15.315Z,100290.00
2022-08-16T03:32:45.225Z,100292.00
2022-08-16T03:35:17.578Z,100283.00
2022-08-16T03:38:03.320Z,100283.00
2022-08-16T03:40:36.713Z,100279.00
2022-08-16T03:43:20.012Z,100279.00
2022-08-16T03:45:52.479Z,100286.00
2022-08-16T03:48:36.785Z,100292.00
2022-08-16T03:51:12.442Z,100286.00
2022-08-16T03:53:42.116Z,100288.00
2022-08-16T03:56:20.047Z,100288.00
2022-08-16T03:58:51.057Z,100291.00
2022-08-16T04:01:22.131Z,100295.00
2022-08-16T04:03:52.935Z,100288.00
2022-08-16T04:06:21.981Z,100297.00
2022-08-16T04:08:48.856Z,100297.00
2022-08-16T04:11:17.272Z,100286.00
2022-08-16T04:14:01.849Z,100292.00
2022-08-16T04:16:32.445Z,100296.00
2022-08-16T04:19:02.233Z,100300.00
2022-08-16T04:21:36.021Z,100308.00
2022-08-16T04:24:13.037Z,100307.00
2022-08-16T04:26:46.048Z,100309.00
2022-08-16T04:29:23.590Z,100317.00
2022-08-16T04:31:56.094Z,100312.00
2022-08-16T04:34:28.655Z,100318.00
2022-08-16T04:36:57.007Z,100316.00
2022-08-16T04:39:46.135Z,100316.00
2022-08-16T04:42:17.151Z,100323.00
2022-08-16T04:44:53.372Z,100322.00
2022-08-16T04:47:25.138Z,100324.00
2022-08-16T04:49:59.260Z,100319.00
2022-08-16T04:52:33.693Z,100325.00
2022-08-16T04:55:01.625Z,100317.00
2022-08-16T04:57:30.585Z,100321.00
2022-08-16T04:59:57.663Z,100333.00
2022-08-16T05:02:42.509Z,100337.00
2022-08-16T05:05:17.288Z,100344.00
2022-08-16T05:07:57.842Z,100337.00
2022-08-16T05:10:27.947Z,100337.00
2022-08-16T05:12:55.256Z,100337.00
2022-08-16T05:15:24.048Z,100345.00
2022-08-16T05:17:58.602Z,100348.00
2022-08-16T05:20:39.534Z,100336.00
2022-08-16T05:23:15.079Z,100333.00
2022-08-16T05:25:47.845Z,100334.00
2022-08-16T05:28:17.415Z,100334.00
2022-08-16T05:30:45.957Z,100343.00
2022-08-16T05:33:18.334Z,100347.00
2022-08-16T05:35:54.637Z,100341.00
2022-08-16T05:38:33.363Z,100351.00
2022-08-16T05:41:09.440Z,100335.00
2022-08-16T05:43:43.498Z,100345.00
2022-08-16T05:46:28.629Z,100342.00
2022-08-16T05:49:05.445Z,100346.00
2022-08-16T05:51:38.991Z,100349.00
2022-08-16T05:54:11.151Z,100347.00
2022-08-16T05:56:40.821Z,100353.00
2022-08-16T05:59:10.699Z,100346.00
2022-08-16T06:01:39.162Z,100353.00
2022-08-16T06:04:13.541Z,100345.00
2022-08-16T06:06:57.466Z,100362.00
2022-08-16T06:09:42.571Z,100360.00
2022-08-16T06:12:27.530Z,100362.00
2022-08-16T06:14:59.528Z,100369.00
2022-08-16T06:17:42.554Z,100357.00
2022-08-16T06:20:18.587Z,100363.00
2022-08-16T06:23:03.369Z,100366.00
2022-08-16T06:25:35.869Z,100374.00
2022-08-16T06:28:09.428Z,100368.00
2022-08-16T06:30:43.857Z,100384.00
2022-08-16T06:33:22.084Z,100383.00
2022-08-16T06:35:55.002Z,100395.00
2022-08-16T06:38:33.496Z,100390.00
2022-08-16T06:41:04.214Z,100401.00
2022-08-16T06:43:32.329Z,100390.00
2022-08-16T06:46:03.761Z,100394.00
2022-08-16T06:48:33.756Z,100399.00
2022-08-16T06:51:04.625Z,100418.00
2022-08-16T06:53:35.545Z,100411.00
2022-08-16T06:56:14.450Z,100422.00
2022-08-16T06:58:52.087Z,100421.00
2022-08-16T07:01:43.457Z,100415.00
2022-08-16T07:04:10.989Z,100417.00
2022-08-16T07:06:43.188Z,100420.00
2022-08-16T07:09:15.879Z,100420.00
2022-08-16T07:11:45.738Z,100422.00
2022-08-16T07:14:24.083Z,100411.00
2022-08-16T07:16:55.873Z,100424.00
2022-08-16T07:19:33.562Z,100428.00
2022-08-16T07:22:36.699Z,100422.00
2022-08-16T07:25:02.254Z,100421.00
2022-08-16T07:27:32.109Z,100413.00
2022-08-16T07:30:01.460Z,100423.00
2022-08-16T07:32:31.476Z,100430.00
2022-08-16T07:34:59.230Z,100423.00
2022-08-16T07:37:26.113Z,100428.00
2022-08-16T07:39:54.689Z,100430.00
2022-08-16T07:42:34.678Z,100431.00
2022-08-16T07:45:07.495Z,100442.00
2022-08-16T07:47:37.135Z,100435.00
2022-08-16T07:50:07.433Z,100432.00
2022-08-16T07:52:38.978Z,100429.00
2022-08-16T07:55:08.310Z,100436.00
2022-08-16T07:57:44.305Z,100443.00
2022-08-16T08:00:26.356Z,100443.00
2022-08-16T08:02:55.525Z,100455.00
2022-08-16T08:05:35.882Z,100449.00
2022-08-16T08:08:11.504Z,100442.00
2022-08-16T08:10:39.275Z,100448.00
2022-08-16T08:13:06.128Z,100443.00
2022-08-16T08:15:37.033Z,100447.00
2022-08-16T08:18:30.188Z,100463.00
2022-08-16T08:20:59.396Z,100455.00
2022-08-16T08:23:27.689Z,100455.00
2022-08-16T08:25:55.841Z,100458.00
2022-08-16T08:28:23.709Z,100463.00
2022-08-16T08:31:01.173Z,100467.00
2022-08-16T08:33:31.823Z,100477.00
2022-08-16T08:36:05.479Z,100479.00
2022-08-16T08:38:43.736Z,100477.00
2022-08-16T08:41:12.896Z,100472.00
2022-08-16T08:43:41.830Z,100464.00
2022-08-16T08:46:17.815Z,100468.00
2022-08-16T08:48:46.422Z,100476.00
2022-08-16T08:51:35.498Z,100478.00
2022-08-16T08:54:09.269Z,100476.00
2022-08-16T08:56:45.937Z,100487.00
2022-08-16T08:59:20.445Z,100485.00
2022-08-16T09:01:58.094Z,100475.00
2022-08-16T09:04:28.304Z,100476.00
2022-08-16T09:06:56.230Z,100488.00
2022-08-16T09:09:25.433Z,100483.00
2022-08-16T09:12:06.602Z,100490.00
2022-08-16T09:14:36.234Z,100488.00
2022-08-16T09:17:21.573Z,100491.00
2022-08-16T09:19:53.886Z,100492.00
2022-08-16T09:22:25.552Z,100492.00
2022-08-16T09:25:09.660Z,100497.00
2022-08-16T09:27:56.896Z,100489.00
2022-08-16T09:30:33.566Z,100503.00
2022-08-16T09:33:07.515Z,100505.00
2022-08-16T09:35:38.595Z,100490.00
2022-08-16T09:38:08.747Z,100498.00
2022-08-16T09:40:43.324Z,100496.00
2022-08-16T09:43:46.525Z,100493.00
2022-08-16T09:46:02.867Z,100484.00
2022-08-16T09:48:43.996Z,100491.00
2022-08-16T09:51:13.937Z,100485.00
2022-08-16T09:53:42.035Z,100476.00
2022-08-16T09:56:33.183Z,100489.00
2022-08-16T09:59:07.774Z,100487.00
2022-08-16T10:01:38.512Z,100490.00
2022-08-16T10:04:31.096Z,100490.00
2022-08-16T10:09:54.405Z,100487.00
2022-08-16T10:12:42.138Z,100488.00
2022-08-16T10:15:16.014Z,100484.00
2022-08-16T10:18:00.290Z,100486.00
2022-08-16T10:20:34.760Z,100480.00
2022-08-16T10:23:07.395Z,100491.00
2022-08-16T10:27:16.985Z,100481.00
2022-08-16T10:28:31.868Z,100490.00
2022-08-16T10:31:05.137Z,100478.00
2022-08-16T10:33:34.757Z,100478.00
2022-08-16T10:36:09.721Z,100489.00
2022-08-16T10:38:41.996Z,100488.00
2022-08-16T10:41:11.672Z,100494.00
2022-08-16T10:43:43.591Z,100481.00
2022-08-16T10:46:39.944Z,100479.00
2022-08-16T10:49:01.070Z,100488.00
2022-08-16T10:51:34.379Z,100480.00
2022-08-16T10:54:29.803Z,100484.00
2022-08-16T10:56:59.414Z,100488.00
2022-08-16T10:59:32.564Z,100489.00
2022-08-16T11:05:06.476Z,100486.00
2022-08-16T11:07:53.363Z,100484.00
2022-08-16T11:19:12.278Z,100483.00
2022-08-16T11:24:39.404Z,100485.00
2022-08-16T11:27:20.178Z,100482.00
2022-08-16T11:29:56.158Z,100488.00
2022-08-16T11:32:32.443Z,100487.00
2022-08-16T11:35:13.838Z,100482.00
2022-08-16T11:38:06.223Z,100486.00
2022-08-16T11:40:58.437Z,100492.00
2022-08-16T11:43:33.965Z,100494.00
2022-08-16T11:46:45.381Z,100486.00
2022-08-16T11:48:57.032Z,100491.00
2022-08-16T11:51:24.700Z,100498.00
2022-08-16T11:53:51.818Z,100500.00
2022-08-16T11:56:39.497Z,100484.00
2022-08-16T11:59:07.314Z,100492.00
2022-08-16T12:01:44.565Z,100498.00
2022-08-16T12:04:22.363Z,100484.00
2022-08-16T12:06:53.606Z,100486.00
2022-08-16T12:09:22.406Z,100477.00
2022-08-16T12:11:53.131Z,100483.00
2022-08-16T12:14:23.104Z,100496.00
2022-08-16T12:16:55.452Z,100497.00
2022-08-16T12:19:35.313Z,100494.00
2022-08-16T12:22:05.797Z,100491.00
2022-08-16T12:24:51.014Z,100494.00
2022-08-16T12:27:23.299Z,100496.00
2022-08-16T12:29:52.651Z,100494.00
2022-08-16T12:32:36.184Z,100487.00
2022-08-16T12:35:12.231Z,100486.00
2022-08-16T12:37:41.630Z,100495.00
2022-08-16T12:40:24.513Z,100484.00
2022-08-16T12:42:59.052Z,100483.00
2022-08-16T12:45:31.504Z,100481.00
2022-08-16T12:48:34.765Z,100489.00
2022-08-16T12:51:19.899Z,100485.00
2022-08-16T12:53:56.165Z,100492.00
2022-08-16T12:56:32.877Z,100495.00
2022-08-16T12:59:04.418Z,100483.00
2022-08-16T13:01:33.981Z,100487.00
2022-08-16T13:04:12.145Z,100493.00
2022-08-16T13:06:48.925Z,100489.00
2022-08-16T13:09:20.997Z,100486.00
2022-08-16T13:12:04.171Z,100485.00
2022-08-16T13:14:42.065Z,100481.00
2022-08-16T13:17:19.153Z,100486.00
2022-08-16T13:20:07.640Z,100484.00
2022-08-16T13:22:47.979Z,100481.00
2022-08-16T13:25:20.893Z,100478.00
2022-08-16T13:28:01.980Z,100485.00
2022-08-16T13:30:35.922Z,100484.00
2022-08-16T13:33:11.488Z,100491.00
2022-08-16T13:35:44.653Z,100499.00
2022-08-16T13:38:24.191Z,100495.00
2022-08-16T13:40:57.007Z,100491.00
2022-08-16T13:43:32.486Z,100484.00
2022-08-16T13:46:04.547Z,100489.00
2022-08-16T13:48:43.343Z,100487.00
2022-08-16T13:51:16.768Z,100501.00
2022-08-16T13:53:49.479Z,100482.00
2022-08-16T13:56:25.316Z,100482.00
2022-08-16T13:58:54.951Z,100487.00
2022-08-16T14:01:22.875Z,100487.00
2022-08-16T14:03:50.417Z,100487.00
2022-08-16T14:06:22.506Z,100493.00
2022-08-16T14:08:59.217Z,100487.00
2022-08-16T14:11:33.953Z,100483.00
2022-08-16T14:14:01.807Z,100487.00
2022-08-16T14:16:34.927Z,100487.00
2022-08-16T14:19:03.803Z,100488.00
2022-08-16T14:21:34.901Z,100487.00
2022-08-16T14:24:16.638Z,100485.00
2022-08-16T14:26:49.932Z,100485.00
2022-08-16T14:31:53.623Z,100478.00
2022-08-16T14:34:21.569Z,100485.00
2022-08-16T14:36:52.973Z,100492.00
2022-08-16T14:39:22.116Z,100487.00
2022-08-16T14:41:49.305Z,100489.00
2022-08-16T14:44:20.261Z,100486.00
2022-08-16T14:46:47.137Z,100479.00
2022-08-16T14:49:14.424Z,100477.00
2022-08-16T14:51:46.284Z,100480.00
2022-08-16T14:54:15.181Z,100486.00
2022-08-16T14:56:46.894Z,100475.00
2022-08-16T14:59:21.625Z,100478.00
2022-08-16T15:01:59.604Z,100471.00
2022-08-16T15:04:40.068Z,100477.00
2022-08-16T15:07:16.166Z,100468.00
2022-08-16T15:10:00.135Z,100472.00
2022-08-16T15:12:33.717Z,100475.00
2022-08-16T15:15:12.546Z,100470.00
2022-08-16T15:17:43.760Z,100483.00
2022-08-16T15:20:22.798Z,100480.00
2022-08-16T15:22:53.125Z,100481.00
2022-08-16T15:25:58.611Z,100473.00
2022-08-16T15:28:36.998Z,100471.00
2022-08-16T15:31:09.252Z,100473.00
2022-08-16T15:33:50.633Z,100471.00
2022-08-16T15:36:22.371Z,100466.00
2022-08-16T15:39:06.911Z,100477.00
2022-08-16T15:41:58.275Z,100469.00
2022-08-16T15:44:53.085Z,100469.00
2022-08-16T15:47:26.309Z,100466.00
2022-08-16T15:49:55.631Z,100479.00
2022-08-16T15:52:32.229Z,100473.00
2022-08-16T15:55:07.435Z,100476.00
2022-08-16T15:57:42.135Z,100473.00
2022-08-16T16:00:15.152Z,100481.00
2022-08-16T16:02:43.097Z,100486.00
2022-08-16T16:05:14.049Z,100489.00
2022-08-16T16:07:56.442Z,100483.00
2022-08-16T16:10:29.218Z,100494.00
2022-08-16T16:12:58.028Z,100487.00
2022-08-16T16:15:29.444Z,100484.00
2022-08-16T16:17:57.391Z,100481.00
2022-08-16T16:20:27.957Z,100489.00
2022-08-16T16:22:57.930Z,100482.00
2022-08-16T16:25:26.032Z,100483.00
2022-08-16T16:27:59.916Z,100484.00
2022-08-16T16:30:46.167Z,100483.00
2022-08-16T16:33:15.740Z,100488.00
2022-08-16T16:35:55.174Z,100494.00
2022-08-16T16:38:28.891Z,100494.00
2022-08-16T16:40:57.775Z,100486.00
2022-08-16T16:43:25.975Z,100489.00
2022-08-16T16:45:59.492Z,100491.00
2022-08-16T16:48:34.454Z,100497.00
2022-08-16T16:51:09.083Z,100497.00
2022-08-16T16:53:41.270Z,100504.00
2022-08-16T16:56:19.452Z,100512.00
2022-08-16T16:58:56.318Z,100504.00
2022-08-16T17:01:41.474Z,100507.00
2022-08-16T17:04:22.282Z,100505.00
2022-08-16T17:06:53.345Z,100515.00
2022-08-16T17:09:20.946Z,100516.00
2022-08-16T17:11:48.534Z,100528.00
2022-08-16T17:14:33.613Z,100524.00
2022-08-16T17:17:05.159Z,100527.00
2022-08-16T17:19:32.314Z,100528.00
2022-08-16T17:22:00.567Z,100524.00
2022-08-16T17:24:39.566Z,100517.00
2022-08-16T17:27:08.230Z,100529.00
2022-08-16T17:29:46.095Z,100522.00
2022-08-16T17:35:16.153Z,100530.00
2022-08-16T17:37:50.883Z,100536.00
2022-08-16T17:39:28.618Z,100529.00
2022-08-16T17:40:40.627Z,100533.00
2022-08-16T17:43:11.177Z,100541.00
2022-08-16T17:45:39.285Z,100545.00
2022-08-16T17:48:06.874Z,100546.00
2022-08-16T17:50:33.630Z,100539.00
2022-08-16T17:53:03.201Z,100538.00
2022-08-16T17:55:36.155Z,100541.00
2022-08-16T17:58:10.562Z,100545.00
2022-08-16T18:00:52.426Z,100542.00
2022-08-16T18:04:02.205Z,100552.00
2022-08-16T18:06:16.799Z,100539.00
2022-08-16T18:08:44.385Z,100540.00
2022-08-16T18:11:25.598Z,100551.00
2022-08-16T18:13:53.071Z,100548.00
2022-08-16T18:16:20.656Z,100545.00
2022-08-16T18:18:47.565Z,100548.00
2022-08-16T18:21:33.850Z,100553.00
2022-08-16T18:24:00.890Z,100551.00
2022-08-16T18:26:27.634Z,100560.00
2022-08-16T18:28:54.442Z,100556.00
2022-08-16T18:31:21.239Z,100564.00
2022-08-16T18:33:48.590Z,100562.00
2022-08-16T18:36:21.629Z,100563.00
2022-08-16T18:38:49.987Z,100562.00
2022-08-16T18:41:17.975Z,100564.00
2022-08-16T18:44:23.610Z,100569.00
2022-08-16T18:46:31.507Z,100573.00
2022-08-16T18:48:58.337Z,100576.00
2022-08-16T18:51:25.979Z,100571.00
2022-08-16T18:53:53.653Z,100567.00
2022-08-16T18:56:20.603Z,100581.00
2022-08-16T18:58:47.398Z,100577.00
2022-08-16T19:01:14.344Z,100572.00
2022-08-16T19:03:42.305Z,100586.00
2022-08-16T19:06:13.994Z,100595.00
2022-08-16T19:08:43.987Z,100590.00
2022-08-16T19:11:15.508Z,100595.00
2022-08-16T19:13:44.288Z,100596.00
2022-08-16T19:16:12.375Z,100598.00
2022-08-16T19:18:39.499Z,100599.00
2022-08-16T19:21:07.965Z,100598.00
2022-08-16T19:23:37.247Z,100591.00
2022-08-16T19:26:10.783Z,100591.00
2022-08-16T19:28:50.580Z,100598.00
2022-08-16T19:31:30.182Z,100602.00
2022-08-16T19:33:57.609Z,100611.00
2022-08-16T19:36:31.934Z,100597.00
2022-08-16T19:39:04.980Z,100612.00
2022-08-16T19:41:35.244Z,100611.00
2022-08-16T19:44:02.554Z,100615.00
2022-08-16T19:46:29.307Z,100621.00
2022-08-16T19:48:56.077Z,100624.00
2022-08-16T19:51:22.833Z,100623.00
2022-08-16T19:53:49.634Z,100618.00
2022-08-16T19:56:16.344Z,100611.00
2022-08-16T19:59:01.966Z,100615.00
2022-08-16T20:01:30.138Z,100618.00
2022-08-16T20:03:57.942Z,100621.00
2022-08-16T20:06:32.163Z,100624.00
2022-08-16T20:09:05.224Z,100619.00
2022-08-16T20:11:32.145Z,100617.00
2022-08-16T20:13:59.446Z,100619.00
2022-08-16T20:16:26.539Z,100619.00
2022-08-16T20:18:53.493Z,100629.00
2022-08-16T20:21:20.283Z,100625.00
2022-08-16T20:23:47.091Z,100626.00
2022-08-16T20:26:13.846Z,100627.00
2022-08-16T20:28:53.551Z,100638.00
2022-08-16T20:31:22.674Z,100638.00
2022-08-16T20:33:50.151Z,100635.00
2022-08-16T20:36:17.140Z,100634.00
2022-08-16T20:38:47.146Z,100637.00
2022-08-16T20:41:15.549Z,100641.00
2022-08-16T20:43:43.190Z,100634.00
2022-08-16T20:46:11.499Z,100637.00
2022-08-16T20:48:38.406Z,100632.00
2022-08-16T20:51:06.847Z,100636.00
2022-08-16T20:53:34.210Z,100637.00
2022-08-16T20:56:00.926Z,100648.00
2022-08-16T20:58:27.886Z,100642.00
2022-08-16T21:00:54.817Z,100639.00
2022-08-16T21:03:21.622Z,100641.00
2022-08-16T21:05:48.414Z,100639.00
2022-08-16T21:08:50.956Z,100641.00
2022-08-16T21:11:06.395Z,100640.00
2022-08-16T21:13:33.956Z,100634.00
2022-08-16T21:16:02.302Z,100630.00
2022-08-16T21:18:29.170Z,100631.00
2022-08-16T21:20:56.283Z,100633.00
2022-08-16T21:23:23.047Z,100628.00
2022-08-16T21:25:58.969Z,100632.00
2022-08-16T21:28:40.448Z,100632.00
2022-08-16T21:31:14.185Z,100637.00
2022-08-16T21:33:41.268Z,100631.00
2022-08-16T21:36:08.688Z,100625.00
2022-08-16T21:38:35.453Z,100631.00
2022-08-16T21:41:04.062Z,100638.00
2022-08-16T21:43:32.270Z,100626.00
2022-08-16T21:46:01.304Z,100637.00
2022-08-16T21:48:35.106Z,100633.00
2022-08-16T21:51:11.839Z,100639.00
2022-08-16T21:53:39.165Z,100635.00
2022-08-16T21:56:06.798Z,100641.00
2022-08-16T21:58:36.725Z,100637.00
2022-08-16T22:01:04.176Z,100647.00
2022-08-16T22:03:33.266Z,100635.00
2022-08-16T22:06:13.816Z,100638.00
2022-08-16T22:08:49.201Z,100645.00
2022-08-16T22:11:22.311Z,100649.00
2022-08-16T22:13:57.936Z,100642.00
2022-08-16T22:16:31.516Z,100654.00
2022-08-16T22:18:59.090Z,100646.00
2022-08-16T22:21:26.334Z,100655.00
2022-08-16T22:23:57.870Z,100655.00
2022-08-16T22:26:31.539Z,100660.00
2022-08-16T22:29:01.187Z,100658.00
2022-08-16T22:31:28.658Z,100663.00
2022-08-16T22:33:56.823Z,100666.00
2022-08-16T22:36:24.217Z,100669.00
2022-08-16T22:38:58.025Z,100665.00
2022-08-16T22:41:27.051Z,100668.00
2022-08-16T22:43:53.953Z,100675.00
2022-08-16T22:46:20.959Z,100673.00
2022-08-16T22:48:50.454Z,100678.00
2022-08-16T22:51:20.002Z,100673.00
2022-08-16T22:53:47.073Z,100680.00
2022-08-16T22:56:15.601Z,100676.00
2022-08-16T22:58:42.481Z,100669.00
2022-08-16T23:01:10.320Z,100676.00
2022-08-16T23:03:37.989Z,100668.00
2022-08-16T23:06:05.639Z,100669.00
2022-08-16T23:08:39.651Z,100679.00
2022-08-16T23:11:21.210Z,100663.00
2022-08-16T23:13:53.586Z,100671.00
2022-08-16T23:16:34.089Z,100663.00
2022-08-16T23:19:09.413Z,100664.00
2022-08-16T23:21:38.311Z,100665.00
2022-08-16T23:24:06.501Z,100655.00
2022-08-16T23:26:46.135Z,100663.00
2022-08-16T23:29:24.634Z,100664.00
2022-08-16T23:31:56.483Z,100662.00
2022-08-16T23:34:24.179Z,100659.00
2022-08-16T23:36:51.010Z,100656.00
2022-08-16T23:39:17.822Z,100648.00
2022-08-16T23:41:44.621Z,100659.00
2022-08-16T23:44:42.291Z,100655.00
2022-08-16T23:46:58.120Z,100651.00
2022-08-16T23:49:58.038Z,100646.00
2022-08-16T23:52:12.302Z,100645.00
2022-08-16T23:54:39.413Z,100637.00
2022-08-16T23:57:06.170Z,100643.00
2022-08-16T23:59:52.207Z,100640.00
